sensor_id;sensor_type;location;lat;lon;timestamp;P1;durP1;ratioP1;P2;durP2;ratioP2
20531;SDS011;10424;52.102;8.084;2023-09-19T00:01:40;6.13;;;2.95;;
20531;SDS011;10424;52.102;8.084;2023-09-19T00:04:09;7.50;;;3.13;;
20531;SDS011;10424;52.102;8.084;2023-09-19T00:06:37;6.25;;;3.30;;
20531;SDS011;10424;52.102;8.084;2023-09-19T00:09:05;7.15;;;2.90;;
20531;SDS011;10424;52.102;8.084;2023-09-19T00:11:35;7.93;;;3.28;;
20531;SDS011;10424;52.102;8.084;2023-09-19T00:14:03;5.78;;;3.08;;
20531;SDS011;10424;52.102;8.084;2023-09-19T00:16:33;7.78;;;3.00;;
20531;SDS011;10424;52.102;8.084;2023-09-19T00:19:03;7.40;;;3.13;;
20531;SDS011;10424;52.102;8.084;2023-09-19T00:21:34;9.20;;;3.25;;
20531;SDS011;10424;52.102;8.084;2023-09-19T00:24:03;10.05;;;3.22;;
20531;SDS011;10424;52.102;8.084;2023-09-19T00:26:31;7.00;;;3.65;;
20531;SDS011;10424;52.102;8.084;2023-09-19T00:28:59;4.82;;;2.53;;
20531;SDS011;10424;52.102;8.084;2023-09-19T00:31:31;8.70;;;3.08;;
20531;SDS011;10424;52.102;8.084;2023-09-19T00:33:58;6.93;;;2.60;;
20531;SDS011;10424;52.102;8.084;2023-09-19T00:36:30;7.70;;;2.95;;
20531;SDS011;10424;52.102;8.084;2023-09-19T00:38:58;6.20;;;2.40;;
20531;SDS011;10424;52.102;8.084;2023-09-19T00:41:26;9.02;;;2.88;;
20531;SDS011;10424;52.102;8.084;2023-09-19T00:43:55;7.80;;;2.22;;
20531;SDS011;10424;52.102;8.084;2023-09-19T00:46:22;8.98;;;2.88;;
20531;SDS011;10424;52.102;8.084;2023-09-19T00:48:50;8.23;;;2.60;;
20531;SDS011;10424;52.102;8.084;2023-09-19T00:51:18;7.80;;;2.97;;
20531;SDS011;10424;52.102;8.084;2023-09-19T00:53:47;7.13;;;2.45;;
20531;SDS011;10424;52.102;8.084;2023-09-19T00:56:15;9.77;;;2.92;;
20531;SDS011;10424;52.102;8.084;2023-09-19T00:58:43;4.82;;;2.40;;
20531;SDS011;10424;52.102;8.084;2023-09-19T01:01:11;9.80;;;2.97;;
20531;SDS011;10424;52.102;8.084;2023-09-19T01:03:40;6.97;;;2.35;;
20531;SDS011;10424;52.102;8.084;2023-09-19T01:06:08;9.20;;;2.63;;
20531;SDS011;10424;52.102;8.084;2023-09-19T01:08:35;12.68;;;3.00;;
20531;SDS011;10424;52.102;8.084;2023-09-19T01:11:06;10.50;;;2.70;;
20531;SDS011;10424;52.102;8.084;2023-09-19T01:13:40;8.10;;;2.13;;
20531;SDS011;10424;52.102;8.084;2023-09-19T01:16:13;7.72;;;2.50;;
20531;SDS011;10424;52.102;8.084;2023-09-19T01:18:46;8.05;;;2.63;;
20531;SDS011;10424;52.102;8.084;2023-09-19T01:21:15;8.73;;;2.50;;
20531;SDS011;10424;52.102;8.084;2023-09-19T01:23:59;8.65;;;2.65;;
20531;SDS011;10424;52.102;8.084;2023-09-19T01:26:40;8.50;;;3.22;;
20531;SDS011;10424;52.102;8.084;2023-09-19T01:29:13;7.25;;;2.80;;
20531;SDS011;10424;52.102;8.084;2023-09-19T01:31:46;7.90;;;2.78;;
20531;SDS011;10424;52.102;8.084;2023-09-19T01:34:14;8.82;;;2.75;;
20531;SDS011;10424;52.102;8.084;2023-09-19T01:36:43;6.40;;;2.45;;
20531;SDS011;10424;52.102;8.084;2023-09-19T01:39:11;8.00;;;2.60;;
20531;SDS011;10424;52.102;8.084;2023-09-19T01:41:45;10.25;;;2.90;;
20531;SDS011;10424;52.102;8.084;2023-09-19T01:44:17;12.07;;;2.78;;
20531;SDS011;10424;52.102;8.084;2023-09-19T01:46:47;8.95;;;2.13;;
20531;SDS011;10424;52.102;8.084;2023-09-19T01:49:18;9.30;;;3.05;;
20531;SDS011;10424;52.102;8.084;2023-09-19T01:51:48;10.50;;;2.50;;
20531;SDS011;10424;52.102;8.084;2023-09-19T01:54:20;8.20;;;2.58;;
20531;SDS011;10424;52.102;8.084;2023-09-19T01:56:52;6.88;;;2.33;;
20531;SDS011;10424;52.102;8.084;2023-09-19T01:59:23;10.32;;;3.17;;
20531;SDS011;10424;52.102;8.084;2023-09-19T02:01:53;9.32;;;2.90;;
20531;SDS011;10424;52.102;8.084;2023-09-19T02:04:21;8.93;;;2.83;;
20531;SDS011;10424;52.102;8.084;2023-09-19T02:06:49;10.45;;;2.95;;
20531;SDS011;10424;52.102;8.084;2023-09-19T02:09:17;13.18;;;3.05;;
20531;SDS011;10424;52.102;8.084;2023-09-19T02:11:44;13.45;;;2.85;;
20531;SDS011;10424;52.102;8.084;2023-09-19T02:14:11;11.02;;;3.15;;
20531;SDS011;10424;52.102;8.084;2023-09-19T02:16:40;10.88;;;2.90;;
20531;SDS011;10424;52.102;8.084;2023-09-19T02:19:09;12.23;;;3.33;;
20531;SDS011;10424;52.102;8.084;2023-09-19T02:21:36;7.60;;;2.33;;
20531;SDS011;10424;52.102;8.084;2023-09-19T02:24:05;9.80;;;2.95;;
20531;SDS011;10424;52.102;8.084;2023-09-19T02:26:32;7.78;;;2.60;;
20531;SDS011;10424;52.102;8.084;2023-09-19T02:29:01;8.48;;;2.70;;
20531;SDS011;10424;52.102;8.084;2023-09-19T02:31:29;9.07;;;2.63;;
20531;SDS011;10424;52.102;8.084;2023-09-19T02:33:57;9.35;;;2.40;;
20531;SDS011;10424;52.102;8.084;2023-09-19T02:36:26;10.65;;;3.10;;
20531;SDS011;10424;52.102;8.084;2023-09-19T02:38:56;12.07;;;3.38;;
20531;SDS011;10424;52.102;8.084;2023-09-19T02:41:23;8.52;;;3.30;;
20531;SDS011;10424;52.102;8.084;2023-09-19T02:43:50;13.38;;;3.05;;
20531;SDS011;10424;52.102;8.084;2023-09-19T02:46:19;10.52;;;3.05;;
20531;SDS011;10424;52.102;8.084;2023-09-19T02:48:47;9.75;;;3.50;;
20531;SDS011;10424;52.102;8.084;2023-09-19T02:51:14;9.15;;;2.95;;
20531;SDS011;10424;52.102;8.084;2023-09-19T02:53:43;9.93;;;2.83;;
20531;SDS011;10424;52.102;8.084;2023-09-19T02:56:12;13.73;;;3.30;;
20531;SDS011;10424;52.102;8.084;2023-09-19T02:58:41;8.38;;;2.63;;
20531;SDS011;10424;52.102;8.084;2023-09-19T03:01:08;14.57;;;3.25;;
20531;SDS011;10424;52.102;8.084;2023-09-19T03:03:37;8.27;;;2.63;;
20531;SDS011;10424;52.102;8.084;2023-09-19T03:06:06;14.63;;;3.47;;
20531;SDS011;10424;52.102;8.084;2023-09-19T03:08:34;9.80;;;3.40;;
20531;SDS011;10424;52.102;8.084;2023-09-19T03:11:05;5.43;;;2.50;;
20531;SDS011;10424;52.102;8.084;2023-09-19T03:13:38;9.45;;;3.03;;
20531;SDS011;10424;52.102;8.084;2023-09-19T03:16:07;9.80;;;3.40;;
20531;SDS011;10424;52.102;8.084;2023-09-19T03:18:34;8.27;;;3.17;;
20531;SDS011;10424;52.102;8.084;2023-09-19T03:21:01;10.30;;;3.30;;
20531;SDS011;10424;52.102;8.084;2023-09-19T03:23:29;10.93;;;3.33;;
20531;SDS011;10424;52.102;8.084;2023-09-19T03:25:56;14.55;;;4.10;;
20531;SDS011;10424;52.102;8.084;2023-09-19T03:28:25;11.40;;;3.10;;
20531;SDS011;10424;52.102;8.084;2023-09-19T03:30:59;11.25;;;3.00;;
20531;SDS011;10424;52.102;8.084;2023-09-19T03:33:27;11.48;;;3.00;;
20531;SDS011;10424;52.102;8.084;2023-09-19T03:35:56;12.65;;;3.20;;
20531;SDS011;10424;52.102;8.084;2023-09-19T03:38:24;9.43;;;3.00;;
20531;SDS011;10424;52.102;8.084;2023-09-19T03:40:52;11.25;;;2.13;;
20531;SDS011;10424;52.102;8.084;2023-09-19T03:43:19;11.45;;;3.00;;
20531;SDS011;10424;52.102;8.084;2023-09-19T03:45:48;12.98;;;2.78;;
20531;SDS011;10424;52.102;8.084;2023-09-19T03:48:16;10.98;;;3.00;;
20531;SDS011;10424;52.102;8.084;2023-09-19T03:50:44;10.15;;;2.58;;
20531;SDS011;10424;52.102;8.084;2023-09-19T03:53:12;11.88;;;2.20;;
20531;SDS011;10424;52.102;8.084;2023-09-19T03:55:39;7.93;;;2.13;;
20531;SDS011;10424;52.102;8.084;2023-09-19T03:58:06;7.75;;;2.20;;
20531;SDS011;10424;52.102;8.084;2023-09-19T04:00:33;10.40;;;2.13;;
20531;SDS011;10424;52.102;8.084;2023-09-19T04:03:02;9.15;;;2.28;;
20531;SDS011;10424;52.102;8.084;2023-09-19T04:05:31;9.20;;;2.17;;
20531;SDS011;10424;52.102;8.084;2023-09-19T04:07:59;13.20;;;2.20;;
20531;SDS011;10424;52.102;8.084;2023-09-19T04:10:26;9.52;;;2.60;;
20531;SDS011;10424;52.102;8.084;2023-09-19T04:12:54;10.68;;;2.20;;
20531;SDS011;10424;52.102;8.084;2023-09-19T04:15:23;11.20;;;2.35;;
20531;SDS011;10424;52.102;8.084;2023-09-19T04:17:50;9.43;;;2.10;;
20531;SDS011;10424;52.102;8.084;2023-09-19T04:20:19;8.65;;;2.30;;
20531;SDS011;10424;52.102;8.084;2023-09-19T04:22:48;7.35;;;2.30;;
20531;SDS011;10424;52.102;8.084;2023-09-19T04:25:15;10.98;;;2.20;;
20531;SDS011;10424;52.102;8.084;2023-09-19T04:27:43;8.57;;;1.77;;
20531;SDS011;10424;52.102;8.084;2023-09-19T04:30:11;6.90;;;2.00;;
20531;SDS011;10424;52.102;8.084;2023-09-19T04:32:39;7.88;;;1.92;;
20531;SDS011;10424;52.102;8.084;2023-09-19T04:35:07;10.60;;;2.30;;
20531;SDS011;10424;52.102;8.084;2023-09-19T04:37:38;8.68;;;2.30;;
20531;SDS011;10424;52.102;8.084;2023-09-19T04:40:06;7.75;;;2.35;;
20531;SDS011;10424;52.102;8.084;2023-09-19T04:42:37;12.75;;;2.67;;
20531;SDS011;10424;52.102;8.084;2023-09-19T04:45:05;8.32;;;2.00;;
20531;SDS011;10424;52.102;8.084;2023-09-19T04:47:33;10.40;;;2.22;;
20531;SDS011;10424;52.102;8.084;2023-09-19T04:50:00;7.90;;;2.20;;
20531;SDS011;10424;52.102;8.084;2023-09-19T04:52:30;11.60;;;2.13;;
20531;SDS011;10424;52.102;8.084;2023-09-19T04:54:58;8.32;;;2.20;;
20531;SDS011;10424;52.102;8.084;2023-09-19T04:57:26;13.00;;;2.50;;
20531;SDS011;10424;52.102;8.084;2023-09-19T04:59:53;7.93;;;2.00;;
20531;SDS011;10424;52.102;8.084;2023-09-19T05:02:20;9.25;;;2.50;;
20531;SDS011;10424;52.102;8.084;2023-09-19T05:04:48;10.27;;;2.30;;
20531;SDS011;10424;52.102;8.084;2023-09-19T05:07:15;10.60;;;2.20;;
20531;SDS011;10424;52.102;8.084;2023-09-19T05:09:42;10.13;;;2.08;;
20531;SDS011;10424;52.102;8.084;2023-09-19T05:12:11;11.30;;;2.47;;
20531;SDS011;10424;52.102;8.084;2023-09-19T05:14:38;12.30;;;2.45;;
20531;SDS011;10424;52.102;8.084;2023-09-19T05:17:06;8.90;;;1.98;;
20531;SDS011;10424;52.102;8.084;2023-09-19T05:19:33;15.38;;;2.40;;
20531;SDS011;10424;52.102;8.084;2023-09-19T05:22:02;12.40;;;2.20;;
20531;SDS011;10424;52.102;8.084;2023-09-19T05:24:29;13.57;;;2.60;;
20531;SDS011;10424;52.102;8.084;2023-09-19T05:26:57;12.43;;;2.20;;
20531;SDS011;10424;52.102;8.084;2023-09-19T05:29:26;9.80;;;2.20;;
20531;SDS011;10424;52.102;8.084;2023-09-19T05:31:54;10.68;;;2.30;;
20531;SDS011;10424;52.102;8.084;2023-09-19T05:34:21;7.70;;;2.08;;
20531;SDS011;10424;52.102;8.084;2023-09-19T05:36:50;9.77;;;2.60;;
20531;SDS011;10424;52.102;8.084;2023-09-19T05:39:19;10.25;;;2.03;;
20531;SDS011;10424;52.102;8.084;2023-09-19T05:41:47;8.40;;;2.42;;
20531;SDS011;10424;52.102;8.084;2023-09-19T05:44:15;10.27;;;3.42;;
20531;SDS011;10424;52.102;8.084;2023-09-19T05:46:43;8.23;;;2.10;;
20531;SDS011;10424;52.102;8.084;2023-09-19T05:49:13;11.93;;;2.00;;
20531;SDS011;10424;52.102;8.084;2023-09-19T05:51:41;10.80;;;2.03;;
20531;SDS011;10424;52.102;8.084;2023-09-19T05:54:08;13.07;;;2.40;;
20531;SDS011;10424;52.102;8.084;2023-09-19T05:56:36;7.85;;;2.22;;
20531;SDS011;10424;52.102;8.084;2023-09-19T05:59:03;12.15;;;2.55;;
20531;SDS011;10424;52.102;8.084;2023-09-19T06:01:31;11.15;;;2.33;;
20531;SDS011;10424;52.102;8.084;2023-09-19T06:04:01;10.80;;;2.15;;
20531;SDS011;10424;52.102;8.084;2023-09-19T06:06:29;9.10;;;2.47;;
20531;SDS011;10424;52.102;8.084;2023-09-19T06:08:59;10.57;;;2.38;;
20531;SDS011;10424;52.102;8.084;2023-09-19T06:11:26;8.43;;;1.92;;
20531;SDS011;10424;52.102;8.084;2023-09-19T06:13:57;9.93;;;2.35;;
20531;SDS011;10424;52.102;8.084;2023-09-19T06:16:27;9.50;;;2.58;;
20531;SDS011;10424;52.102;8.084;2023-09-19T06:18:54;9.18;;;2.08;;
20531;SDS011;10424;52.102;8.084;2023-09-19T06:21:23;8.07;;;1.75;;
20531;SDS011;10424;52.102;8.084;2023-09-19T06:23:52;9.27;;;2.03;;
20531;SDS011;10424;52.102;8.084;2023-09-19T06:26:19;11.93;;;2.20;;
20531;SDS011;10424;52.102;8.084;2023-09-19T06:28:46;13.20;;;2.20;;
20531;SDS011;10424;52.102;8.084;2023-09-19T06:31:14;10.15;;;2.97;;
20531;SDS011;10424;52.102;8.084;2023-09-19T06:33:41;9.20;;;2.15;;
20531;SDS011;10424;52.102;8.084;2023-09-19T06:36:08;10.45;;;2.05;;
20531;SDS011;10424;52.102;8.084;2023-09-19T06:38:38;11.75;;;3.08;;
20531;SDS011;10424;52.102;8.084;2023-09-19T06:41:06;11.55;;;2.20;;
20531;SDS011;10424;52.102;8.084;2023-09-19T06:43:34;10.05;;;1.90;;
20531;SDS011;10424;52.102;8.084;2023-09-19T06:46:01;6.82;;;1.83;;
20531;SDS011;10424;52.102;8.084;2023-09-19T06:48:29;6.10;;;1.77;;
20531;SDS011;10424;52.102;8.084;2023-09-19T06:50:58;9.90;;;2.10;;
20531;SDS011;10424;52.102;8.084;2023-09-19T06:53:29;5.85;;;1.90;;
20531;SDS011;10424;52.102;8.084;2023-09-19T06:55:59;8.88;;;1.98;;
20531;SDS011;10424;52.102;8.084;2023-09-19T06:58:26;8.98;;;1.92;;
20531;SDS011;10424;52.102;8.084;2023-09-19T07:00:54;8.07;;;2.17;;
20531;SDS011;10424;52.102;8.084;2023-09-19T07:03:22;6.05;;;1.90;;
20531;SDS011;10424;52.102;8.084;2023-09-19T07:05:53;9.00;;;2.97;;
20531;SDS011;10424;52.102;8.084;2023-09-19T07:08:23;9.55;;;2.30;;
20531;SDS011;10424;52.102;8.084;2023-09-19T07:10:50;8.75;;;2.15;;
20531;SDS011;10424;52.102;8.084;2023-09-19T07:13:20;10.35;;;2.00;;
20531;SDS011;10424;52.102;8.084;2023-09-19T07:15:50;9.93;;;1.92;;
20531;SDS011;10424;52.102;8.084;2023-09-19T07:18:17;6.55;;;1.77;;
20531;SDS011;10424;52.102;8.084;2023-09-19T07:20:45;6.10;;;2.00;;
20531;SDS011;10424;52.102;8.084;2023-09-19T07:23:15;9.23;;;2.38;;
20531;SDS011;10424;52.102;8.084;2023-09-19T07:25:43;8.48;;;1.90;;
20531;SDS011;10424;52.102;8.084;2023-09-19T07:28:11;7.78;;;1.73;;
20531;SDS011;10424;52.102;8.084;2023-09-19T07:30:40;8.93;;;1.95;;
20531;SDS011;10424;52.102;8.084;2023-09-19T07:33:07;11.05;;;2.28;;
20531;SDS011;10424;52.102;8.084;2023-09-19T07:35:36;7.15;;;2.13;;
20531;SDS011;10424;52.102;8.084;2023-09-19T07:38:06;8.18;;;2.35;;
20531;SDS011;10424;52.102;8.084;2023-09-19T07:40:33;11.23;;;2.08;;
20531;SDS011;10424;52.102;8.084;2023-09-19T07:43:01;9.65;;;2.35;;
20531;SDS011;10424;52.102;8.084;2023-09-19T07:45:29;5.05;;;1.70;;
20531;SDS011;10424;52.102;8.084;2023-09-19T07:47:58;10.88;;;2.25;;
20531;SDS011;10424;52.102;8.084;2023-09-19T07:50:29;6.30;;;1.67;;
20531;SDS011;10424;52.102;8.084;2023-09-19T07:52:56;9.02;;;1.80;;
20531;SDS011;10424;52.102;8.084;2023-09-19T07:55:24;7.82;;;1.90;;
20531;SDS011;10424;52.102;8.084;2023-09-19T07:57:51;9.60;;;2.15;;
20531;SDS011;10424;52.102;8.084;2023-09-19T08:00:19;5.13;;;1.80;;
20531;SDS011;10424;52.102;8.084;2023-09-19T08:02:46;5.85;;;1.90;;
20531;SDS011;10424;52.102;8.084;2023-09-19T08:05:15;8.20;;;2.22;;
20531;SDS011;10424;52.102;8.084;2023-09-19T08:07:44;9.35;;;2.05;;
20531;SDS011;10424;52.102;8.084;2023-09-19T08:10:13;8.73;;;2.20;;
20531;SDS011;10424;52.102;8.084;2023-09-19T08:12:41;9.90;;;1.88;;
20531;SDS011;10424;52.102;8.084;2023-09-19T08:15:11;10.95;;;1.90;;
20531;SDS011;10424;52.102;8.084;2023-09-19T08:17:39;8.27;;;2.10;;
20531;SDS011;10424;52.102;8.084;2023-09-19T08:20:07;4.80;;;1.73;;
20531;SDS011;10424;52.102;8.084;2023-09-19T08:22:43;9.27;;;1.85;;
20531;SDS011;10424;52.102;8.084;2023-09-19T08:25:12;8.73;;;2.22;;
20531;SDS011;10424;52.102;8.084;2023-09-19T08:27:39;6.50;;;2.05;;
20531;SDS011;10424;52.102;8.084;2023-09-19T08:30:09;8.95;;;2.08;;
20531;SDS011;10424;52.102;8.084;2023-09-19T08:32:36;8.70;;;2.05;;
20531;SDS011;10424;52.102;8.084;2023-09-19T08:35:04;10.70;;;2.38;;
20531;SDS011;10424;52.102;8.084;2023-09-19T08:37:32;7.50;;;2.15;;
20531;SDS011;10424;52.102;8.084;2023-09-19T08:40:01;8.65;;;2.00;;
20531;SDS011;10424;52.102;8.084;2023-09-19T08:42:28;9.38;;;2.20;;
20531;SDS011;10424;52.102;8.084;2023-09-19T08:44:55;7.97;;;2.13;;
20531;SDS011;10424;52.102;8.084;2023-09-19T08:47:26;8.85;;;2.60;;
20531;SDS011;10424;52.102;8.084;2023-09-19T08:49:57;7.10;;;2.10;;
20531;SDS011;10424;52.102;8.084;2023-09-19T08:52:32;9.55;;;2.00;;
20531;SDS011;10424;52.102;8.084;2023-09-19T08:55:01;7.93;;;2.03;;
20531;SDS011;10424;52.102;8.084;2023-09-19T08:57:29;6.60;;;1.98;;
20531;SDS011;10424;52.102;8.084;2023-09-19T09:00:01;6.45;;;2.00;;
20531;SDS011;10424;52.102;8.084;2023-09-19T09:02:35;8.73;;;2.38;;
20531;SDS011;10424;52.102;8.084;2023-09-19T09:05:05;6.50;;;2.30;;
20531;SDS011;10424;52.102;8.084;2023-09-19T09:07:34;8.77;;;2.30;;
20531;SDS011;10424;52.102;8.084;2023-09-19T09:10:04;6.20;;;2.10;;
20531;SDS011;10424;52.102;8.084;2023-09-19T09:12:32;5.97;;;2.00;;
20531;SDS011;10424;52.102;8.084;2023-09-19T09:15:01;5.53;;;1.92;;
20531;SDS011;10424;52.102;8.084;2023-09-19T09:17:29;8.40;;;2.28;;
20531;SDS011;10424;52.102;8.084;2023-09-19T09:19:56;6.22;;;2.25;;
20531;SDS011;10424;52.102;8.084;2023-09-19T09:22:24;5.95;;;2.30;;
20531;SDS011;10424;52.102;8.084;2023-09-19T09:24:52;6.38;;;2.22;;
20531;SDS011;10424;52.102;8.084;2023-09-19T09:27:24;9.10;;;2.40;;
20531;SDS011;10424;52.102;8.084;2023-09-19T09:29:52;8.25;;;1.95;;
20531;SDS011;10424;52.102;8.084;2023-09-19T09:32:21;8.80;;;2.70;;
20531;SDS011;10424;52.102;8.084;2023-09-19T09:34:50;5.80;;;2.10;;
20531;SDS011;10424;52.102;8.084;2023-09-19T09:37:17;9.32;;;2.38;;
20531;SDS011;10424;52.102;8.084;2023-09-19T09:39:52;9.40;;;2.22;;
20531;SDS011;10424;52.102;8.084;2023-09-19T09:42:31;5.13;;;1.98;;
20531;SDS011;10424;52.102;8.084;2023-09-19T09:45:13;9.85;;;2.58;;
20531;SDS011;10424;52.102;8.084;2023-09-19T09:47:43;9.85;;;2.45;;
20531;SDS011;10424;52.102;8.084;2023-09-19T09:50:26;7.03;;;2.20;;
20531;SDS011;10424;52.102;8.084;2023-09-19T09:53:21;7.15;;;2.50;;
20531;SDS011;10424;52.102;8.084;2023-09-19T09:56:02;7.65;;;2.05;;
20531;SDS011;10424;52.102;8.084;2023-09-19T09:58:32;4.82;;;1.98;;
20531;SDS011;10424;52.102;8.084;2023-09-19T10:01:01;8.55;;;2.22;;
20531;SDS011;10424;52.102;8.084;2023-09-19T10:03:34;7.43;;;2.30;;
20531;SDS011;10424;52.102;8.084;2023-09-19T10:06:05;7.43;;;2.08;;
20531;SDS011;10424;52.102;8.084;2023-09-19T10:09:02;6.07;;;1.75;;
20531;SDS011;10424;52.102;8.084;2023-09-19T10:11:47;7.88;;;2.40;;
20531;SDS011;10424;52.102;8.084;2023-09-19T10:14:24;10.07;;;2.47;;
20531;SDS011;10424;52.102;8.084;2023-09-19T10:16:54;7.68;;;2.60;;
20531;SDS011;10424;52.102;8.084;2023-09-19T10:19:27;8.43;;;2.55;;
20531;SDS011;10424;52.102;8.084;2023-09-19T10:21:58;9.48;;;3.00;;
20531;SDS011;10424;52.102;8.084;2023-09-19T10:24:26;11.43;;;2.72;;
20531;SDS011;10424;52.102;8.084;2023-09-19T10:26:56;9.02;;;2.70;;
20531;SDS011;10424;52.102;8.084;2023-09-19T10:29:25;8.88;;;2.40;;
20531;SDS011;10424;52.102;8.084;2023-09-19T10:31:56;9.57;;;2.80;;
20531;SDS011;10424;52.102;8.084;2023-09-19T10:34:25;11.50;;;2.90;;
20531;SDS011;10424;52.102;8.084;2023-09-19T10:36:52;10.55;;;2.88;;
20531;SDS011;10424;52.102;8.084;2023-09-19T10:39:19;8.10;;;2.40;;
20531;SDS011;10424;52.102;8.084;2023-09-19T10:41:49;9.52;;;2.10;;
20531;SDS011;10424;52.102;8.084;2023-09-19T10:44:21;7.90;;;2.40;;
20531;SDS011;10424;52.102;8.084;2023-09-19T10:46:52;6.75;;;1.88;;
20531;SDS011;10424;52.102;8.084;2023-09-19T10:49:19;8.80;;;2.30;;
20531;SDS011;10424;52.102;8.084;2023-09-19T10:51:47;10.52;;;2.70;;
20531;SDS011;10424;52.102;8.084;2023-09-19T10:54:16;7.53;;;2.30;;
20531;SDS011;10424;52.102;8.084;2023-09-19T10:56:46;9.40;;;2.40;;
20531;SDS011;10424;52.102;8.084;2023-09-19T10:59:16;10.95;;;2.78;;
20531;SDS011;10424;52.102;8.084;2023-09-19T11:01:45;5.68;;;2.28;;
20531;SDS011;10424;52.102;8.084;2023-09-19T11:04:26;9.75;;;2.30;;
20531;SDS011;10424;52.102;8.084;2023-09-19T11:07:04;5.97;;;2.58;;
20531;SDS011;10424;52.102;8.084;2023-09-19T11:09:44;7.13;;;2.47;;
20531;SDS011;10424;52.102;8.084;2023-09-19T11:12:12;8.48;;;2.33;;
20531;SDS011;10424;52.102;8.084;2023-09-19T11:14:40;8.07;;;2.67;;
20531;SDS011;10424;52.102;8.084;2023-09-19T11:20:24;6.30;;;2.05;;
20531;SDS011;10424;52.102;8.084;2023-09-19T11:23:23;6.05;;;2.35;;
20531;SDS011;10424;52.102;8.084;2023-09-19T11:25:52;9.90;;;3.17;;
20531;SDS011;10424;52.102;8.084;2023-09-19T11:28:32;10.75;;;2.30;;
20531;SDS011;10424;52.102;8.084;2023-09-19T11:33:43;8.25;;;2.30;;
20531;SDS011;10424;52.102;8.084;2023-09-19T11:36:13;10.15;;;2.55;;
20531;SDS011;10424;52.102;8.084;2023-09-19T11:38:59;7.47;;;2.60;;
20531;SDS011;10424;52.102;8.084;2023-09-19T11:41:37;9.85;;;1.80;;
20531;SDS011;10424;52.102;8.084;2023-09-19T11:46:51;8.65;;;2.08;;
20531;SDS011;10424;52.102;8.084;2023-09-19T11:49:23;9.63;;;2.60;;
20531;SDS011;10424;52.102;8.084;2023-09-19T11:51:56;7.90;;;2.45;;
20531;SDS011;10424;52.102;8.084;2023-09-19T11:54:26;6.05;;;1.92;;
20531;SDS011;10424;52.102;8.084;2023-09-19T11:56:56;10.02;;;2.30;;
20531;SDS011;10424;52.102;8.084;2023-09-19T11:59:24;7.97;;;2.22;;
20531;SDS011;10424;52.102;8.084;2023-09-19T12:01:53;8.68;;;1.90;;
20531;SDS011;10424;52.102;8.084;2023-09-19T12:04:33;7.90;;;2.30;;
20531;SDS011;10424;52.102;8.084;2023-09-19T12:07:04;7.03;;;2.30;;
20531;SDS011;10424;52.102;8.084;2023-09-19T12:09:35;6.40;;;2.13;;
20531;SDS011;10424;52.102;8.084;2023-09-19T12:12:03;6.95;;;2.03;;
20531;SDS011;10424;52.102;8.084;2023-09-19T12:14:31;6.50;;;2.20;;
20531;SDS011;10424;52.102;8.084;2023-09-19T12:16:58;5.82;;;2.10;;
20531;SDS011;10424;52.102;8.084;2023-09-19T12:19:28;3.22;;;1.60;;
20531;SDS011;10424;52.102;8.084;2023-09-19T12:21:56;6.70;;;2.20;;
20531;SDS011;10424;52.102;8.084;2023-09-19T12:24:26;8.48;;;2.33;;
20531;SDS011;10424;52.102;8.084;2023-09-19T12:26:59;7.32;;;2.10;;
20531;SDS011;10424;52.102;8.084;2023-09-19T12:29:26;6.75;;;2.13;;
20531;SDS011;10424;52.102;8.084;2023-09-19T12:31:55;6.60;;;2.20;;
20531;SDS011;10424;52.102;8.084;2023-09-19T12:34:24;5.50;;;2.13;;
20531;SDS011;10424;52.102;8.084;2023-09-19T12:37:06;4.63;;;1.92;;
20531;SDS011;10424;52.102;8.084;2023-09-19T12:39:38;4.55;;;1.70;;
20531;SDS011;10424;52.102;8.084;2023-09-19T12:42:08;9.77;;;2.35;;
20531;SDS011;10424;52.102;8.084;2023-09-19T12:44:36;6.82;;;2.05;;
20531;SDS011;10424;52.102;8.084;2023-09-19T12:47:11;6.32;;;1.95;;
20531;SDS011;10424;52.102;8.084;2023-09-19T12:52:31;6.38;;;1.95;;
20531;SDS011;10424;52.102;8.084;2023-09-19T12:55:03;8.63;;;2.08;;
20531;SDS011;10424;52.102;8.084;2023-09-19T12:57:32;5.45;;;1.63;;
20531;SDS011;10424;52.102;8.084;2023-09-19T13:00:00;6.07;;;1.90;;
20531;SDS011;10424;52.102;8.084;2023-09-19T13:02:27;5.07;;;1.58;;
20531;SDS011;10424;52.102;8.084;2023-09-19T13:04:55;7.25;;;1.55;;
20531;SDS011;10424;52.102;8.084;2023-09-19T13:07:40;10.02;;;2.60;;
20531;SDS011;10424;52.102;8.084;2023-09-19T13:10:12;5.90;;;1.77;;
20531;SDS011;10424;52.102;8.084;2023-09-19T13:12:42;5.43;;;1.77;;
20531;SDS011;10424;52.102;8.084;2023-09-19T13:15:13;6.93;;;1.90;;
20531;SDS011;10424;52.102;8.084;2023-09-19T13:17:44;5.68;;;1.67;;
20531;SDS011;10424;52.102;8.084;2023-09-19T13:20:21;5.40;;;1.70;;
20531;SDS011;10424;52.102;8.084;2023-09-19T13:22:53;6.22;;;1.88;;
20531;SDS011;10424;52.102;8.084;2023-09-19T13:25:25;7.72;;;2.08;;
20531;SDS011;10424;52.102;8.084;2023-09-19T13:27:55;7.63;;;1.90;;
20531;SDS011;10424;52.102;8.084;2023-09-19T13:30:23;7.78;;;1.70;;
20531;SDS011;10424;52.102;8.084;2023-09-19T13:32:51;4.32;;;1.67;;
20531;SDS011;10424;52.102;8.084;2023-09-19T13:35:19;5.72;;;1.50;;
20531;SDS011;10424;52.102;8.084;2023-09-19T13:37:46;4.93;;;1.80;;
20531;SDS011;10424;52.102;8.084;2023-09-19T13:40:16;5.20;;;1.50;;
20531;SDS011;10424;52.102;8.084;2023-09-19T13:42:45;4.95;;;1.88;;
20531;SDS011;10424;52.102;8.084;2023-09-19T13:45:13;8.40;;;2.08;;
20531;SDS011;10424;52.102;8.084;2023-09-19T13:47:42;8.07;;;1.77;;
20531;SDS011;10424;52.102;8.084;2023-09-19T13:50:10;7.13;;;1.92;;
20531;SDS011;10424;52.102;8.084;2023-09-19T13:52:37;6.60;;;1.70;;
20531;SDS011;10424;52.102;8.084;2023-09-19T13:55:04;8.35;;;1.83;;
20531;SDS011;10424;52.102;8.084;2023-09-19T13:57:32;7.15;;;1.65;;
20531;SDS011;10424;52.102;8.084;2023-09-19T14:00:01;5.28;;;1.50;;
20531;SDS011;10424;52.102;8.084;2023-09-19T14:02:29;7.18;;;1.75;;
20531;SDS011;10424;52.102;8.084;2023-09-19T14:04:57;12.30;;;2.38;;
20531;SDS011;10424;52.102;8.084;2023-09-19T14:07:25;6.70;;;1.70;;
20531;SDS011;10424;52.102;8.084;2023-09-19T14:09:52;4.63;;;1.40;;
20531;SDS011;10424;52.102;8.084;2023-09-19T14:12:19;8.32;;;1.75;;
20531;SDS011;10424;52.102;8.084;2023-09-19T14:14:47;8.35;;;1.88;;
20531;SDS011;10424;52.102;8.084;2023-09-19T14:17:17;3.95;;;1.58;;
20531;SDS011;10424;52.102;8.084;2023-09-19T14:19:44;9.52;;;1.80;;
20531;SDS011;10424;52.102;8.084;2023-09-19T14:22:12;5.28;;;1.45;;
20531;SDS011;10424;52.102;8.084;2023-09-19T14:24:39;7.05;;;1.80;;
20531;SDS011;10424;52.102;8.084;2023-09-19T14:27:07;6.22;;;1.85;;
20531;SDS011;10424;52.102;8.084;2023-09-19T14:29:35;8.65;;;1.67;;
20531;SDS011;10424;52.102;8.084;2023-09-19T14:32:03;4.85;;;1.15;;
20531;SDS011;10424;52.102;8.084;2023-09-19T14:34:32;4.95;;;1.80;;
20531;SDS011;10424;52.102;8.084;2023-09-19T14:37:01;4.43;;;1.42;;
20531;SDS011;10424;52.102;8.084;2023-09-19T14:39:29;8.55;;;1.70;;
20531;SDS011;10424;52.102;8.084;2023-09-19T14:41:56;4.60;;;1.42;;
20531;SDS011;10424;52.102;8.084;2023-09-19T14:44:23;6.20;;;1.60;;
20531;SDS011;10424;52.102;8.084;2023-09-19T14:46:51;6.25;;;1.40;;
20531;SDS011;10424;52.102;8.084;2023-09-19T14:49:19;6.50;;;1.30;;
20531;SDS011;10424;52.102;8.084;2023-09-19T14:51:48;3.88;;;1.50;;
20531;SDS011;10424;52.102;8.084;2023-09-19T14:54:17;7.72;;;1.65;;
20531;SDS011;10424;52.102;8.084;2023-09-19T14:56:44;5.18;;;1.40;;
20531;SDS011;10424;52.102;8.084;2023-09-19T14:59:18;5.93;;;1.55;;
20531;SDS011;10424;52.102;8.084;2023-09-19T15:01:46;5.18;;;1.35;;
20531;SDS011;10424;52.102;8.084;2023-09-19T15:04:15;5.97;;;2.10;;
20531;SDS011;10424;52.102;8.084;2023-09-19T15:06:43;5.88;;;1.50;;
20531;SDS011;10424;52.102;8.084;2023-09-19T15:09:12;9.30;;;1.50;;
20531;SDS011;10424;52.102;8.084;2023-09-19T15:11:40;3.58;;;1.20;;